Kirkman, Iowa
Current Conditions -  °F | °C
As of 5:35 AM on Friday 24 Oct 2014 (Local Time) from KHNR Reporting Station
Moderate Fog Moderate Fog  
Wind Chill: 55°   Ceiling: 200
Heat Index: 55°   Visibility: 0mi
Dew Point: 55°   Wind: 12mph
Humidity: 100%   Direction: 190°S
Pressure: 29.99"   Gusts: NA
Location:  41.73°N, 95.27°W
Report Text: KHNR 241035Z AUTO 19010KT M1/4SM FG OVC002 13/13 A2999 RMK AO2
Loading
Personal Weather Stations






























Interactive Weather Map
Tropical Storm Tracking
New forecast layout! Learn more

10-Day Weather Forecast

Advertisements
Track Severe Weather on mobile